sensor_id;sensor_type;location;lat;lon;timestamp;P1;durP1;ratioP1;P2;durP2;ratioP2
34984;SDS011;21190;58.750;17.004;2023-07-31T00:00:04;5.50;;;2.67;;
34984;SDS011;21190;58.750;17.004;2023-07-31T00:02:32;7.50;;;2.45;;
34984;SDS011;21190;58.750;17.004;2023-07-31T00:04:59;5.38;;;2.38;;
34984;SDS011;21190;58.750;17.004;2023-07-31T00:07:26;3.03;;;2.28;;
34984;SDS011;21190;58.750;17.004;2023-07-31T00:09:53;4.32;;;2.42;;
34984;SDS011;21190;58.750;17.004;2023-07-31T00:12:20;3.50;;;2.15;;
34984;SDS011;21190;58.750;17.004;2023-07-31T00:14:47;8.50;;;2.78;;
34984;SDS011;21190;58.750;17.004;2023-07-31T00:17:14;4.22;;;2.45;;
34984;SDS011;21190;58.750;17.004;2023-07-31T00:19:43;3.35;;;2.40;;
34984;SDS011;21190;58.750;17.004;2023-07-31T00:22:12;2.45;;;2.00;;
34984;SDS011;21190;58.750;17.004;2023-07-31T00:24:39;7.35;;;2.30;;
34984;SDS011;21190;58.750;17.004;2023-07-31T00:27:06;4.53;;;2.03;;
34984;SDS011;21190;58.750;17.004;2023-07-31T00:29:33;4.70;;;2.20;;
34984;SDS011;21190;58.750;17.004;2023-07-31T00:32:00;4.20;;;2.20;;
34984;SDS011;21190;58.750;17.004;2023-07-31T00:34:27;2.60;;;2.30;;
34984;SDS011;21190;58.750;17.004;2023-07-31T00:36:54;3.17;;;2.55;;
34984;SDS011;21190;58.750;17.004;2023-07-31T00:39:21;5.75;;;2.03;;
34984;SDS011;21190;58.750;17.004;2023-07-31T00:41:47;3.63;;;2.30;;
34984;SDS011;21190;58.750;17.004;2023-07-31T00:44:14;6.20;;;2.38;;
34984;SDS011;21190;58.750;17.004;2023-07-31T00:46:41;3.80;;;2.50;;
34984;SDS011;21190;58.750;17.004;2023-07-31T00:49:08;5.28;;;2.13;;
34984;SDS011;21190;58.750;17.004;2023-07-31T00:51:37;3.42;;;2.35;;
34984;SDS011;21190;58.750;17.004;2023-07-31T00:54:04;17.08;;;2.80;;
34984;SDS011;21190;58.750;17.004;2023-07-31T00:56:32;2.40;;;1.70;;
34984;SDS011;21190;58.750;17.004;2023-07-31T00:59:00;5.63;;;2.67;;
34984;SDS011;21190;58.750;17.004;2023-07-31T01:01:27;3.17;;;2.35;;
34984;SDS011;21190;58.750;17.004;2023-07-31T01:03:54;3.30;;;2.17;;
34984;SDS011;21190;58.750;17.004;2023-07-31T01:11:34;4.95;;;2.20;;
34984;SDS011;21190;58.750;17.004;2023-07-31T01:16:36;7.20;;;2.30;;
34984;SDS011;21190;58.750;17.004;2023-07-31T01:19:04;3.28;;;2.40;;
34984;SDS011;21190;58.750;17.004;2023-07-31T01:24:16;4.05;;;2.03;;
34984;SDS011;21190;58.750;17.004;2023-07-31T01:27:02;3.28;;;2.25;;
34984;SDS011;21190;58.750;17.004;2023-07-31T01:29:42;5.50;;;2.80;;
34984;SDS011;21190;58.750;17.004;2023-07-31T01:32:15;6.45;;;2.30;;
34984;SDS011;21190;58.750;17.004;2023-07-31T01:34:45;6.20;;;2.55;;
34984;SDS011;21190;58.750;17.004;2023-07-31T01:37:13;3.17;;;2.28;;
34984;SDS011;21190;58.750;17.004;2023-07-31T01:39:40;2.67;;;2.05;;
34984;SDS011;21190;58.750;17.004;2023-07-31T01:42:07;6.65;;;2.15;;
34984;SDS011;21190;58.750;17.004;2023-07-31T01:44:34;6.78;;;2.40;;
34984;SDS011;21190;58.750;17.004;2023-07-31T01:47:01;3.22;;;2.20;;
34984;SDS011;21190;58.750;17.004;2023-07-31T01:49:27;4.90;;;2.20;;
34984;SDS011;21190;58.750;17.004;2023-07-31T01:51:54;7.20;;;2.80;;
34984;SDS011;21190;58.750;17.004;2023-07-31T01:54:21;5.95;;;1.90;;
34984;SDS011;21190;58.750;17.004;2023-07-31T01:56:48;5.13;;;2.38;;
34984;SDS011;21190;58.750;17.004;2023-07-31T01:59:15;2.95;;;2.08;;
34984;SDS011;21190;58.750;17.004;2023-07-31T02:01:42;3.70;;;2.20;;
34984;SDS011;21190;58.750;17.004;2023-07-31T02:04:09;7.45;;;2.30;;
34984;SDS011;21190;58.750;17.004;2023-07-31T02:06:36;9.68;;;2.45;;
34984;SDS011;21190;58.750;17.004;2023-07-31T02:09:04;7.38;;;2.40;;
34984;SDS011;21190;58.750;17.004;2023-07-31T02:11:31;3.10;;;2.22;;
34984;SDS011;21190;58.750;17.004;2023-07-31T02:13:58;3.95;;;2.42;;
34984;SDS011;21190;58.750;17.004;2023-07-31T02:16:25;6.95;;;2.85;;
34984;SDS011;21190;58.750;17.004;2023-07-31T02:18:52;4.05;;;2.70;;
34984;SDS011;21190;58.750;17.004;2023-07-31T02:21:19;3.40;;;2.50;;
34984;SDS011;21190;58.750;17.004;2023-07-31T02:23:46;8.52;;;2.40;;
34984;SDS011;21190;58.750;17.004;2023-07-31T02:26:13;4.20;;;2.35;;
34984;SDS011;21190;58.750;17.004;2023-07-31T02:28:40;3.80;;;2.17;;
34984;SDS011;21190;58.750;17.004;2023-07-31T02:31:09;3.72;;;2.00;;
34984;SDS011;21190;58.750;17.004;2023-07-31T02:33:36;4.18;;;2.70;;
34984;SDS011;21190;58.750;17.004;2023-07-31T02:36:03;6.05;;;2.25;;
34984;SDS011;21190;58.750;17.004;2023-07-31T02:38:30;5.63;;;2.35;;
34984;SDS011;21190;58.750;17.004;2023-07-31T02:40:57;7.15;;;2.40;;
34984;SDS011;21190;58.750;17.004;2023-07-31T02:43:24;4.85;;;2.63;;
34984;SDS011;21190;58.750;17.004;2023-07-31T02:45:51;4.85;;;2.40;;
34984;SDS011;21190;58.750;17.004;2023-07-31T02:48:19;3.25;;;2.72;;
34984;SDS011;21190;58.750;17.004;2023-07-31T02:50:46;3.33;;;2.40;;
34984;SDS011;21190;58.750;17.004;2023-07-31T02:53:14;2.50;;;2.20;;
34984;SDS011;21190;58.750;17.004;2023-07-31T02:55:41;4.68;;;2.42;;
34984;SDS011;21190;58.750;17.004;2023-07-31T02:58:08;8.73;;;2.10;;
34984;SDS011;21190;58.750;17.004;2023-07-31T03:00:35;9.32;;;2.33;;
34984;SDS011;21190;58.750;17.004;2023-07-31T03:03:02;3.67;;;2.15;;
34984;SDS011;21190;58.750;17.004;2023-07-31T03:05:29;8.43;;;2.90;;
34984;SDS011;21190;58.750;17.004;2023-07-31T03:07:56;4.88;;;3.42;;
34984;SDS011;21190;58.750;17.004;2023-07-31T03:10:22;5.30;;;3.55;;
34984;SDS011;21190;58.750;17.004;2023-07-31T03:12:49;8.82;;;2.88;;
34984;SDS011;21190;58.750;17.004;2023-07-31T03:15:16;6.82;;;3.30;;
34984;SDS011;21190;58.750;17.004;2023-07-31T03:17:43;6.55;;;2.67;;
34984;SDS011;21190;58.750;17.004;2023-07-31T03:20:10;9.35;;;2.53;;
34984;SDS011;21190;58.750;17.004;2023-07-31T03:22:38;6.55;;;2.55;;
34984;SDS011;21190;58.750;17.004;2023-07-31T03:25:05;8.95;;;2.70;;
34984;SDS011;21190;58.750;17.004;2023-07-31T03:27:32;9.02;;;2.50;;
34984;SDS011;21190;58.750;17.004;2023-07-31T03:29:59;4.55;;;2.03;;
34984;SDS011;21190;58.750;17.004;2023-07-31T03:32:27;4.15;;;2.30;;
34984;SDS011;21190;58.750;17.004;2023-07-31T03:34:54;7.22;;;2.33;;
34984;SDS011;21190;58.750;17.004;2023-07-31T03:37:21;4.97;;;2.30;;
34984;SDS011;21190;58.750;17.004;2023-07-31T03:39:48;6.80;;;2.78;;
34984;SDS011;21190;58.750;17.004;2023-07-31T03:42:15;7.30;;;2.65;;
34984;SDS011;21190;58.750;17.004;2023-07-31T03:44:42;12.10;;;2.97;;
34984;SDS011;21190;58.750;17.004;2023-07-31T03:47:09;6.35;;;2.63;;
34984;SDS011;21190;58.750;17.004;2023-07-31T03:49:36;13.32;;;3.22;;
34984;SDS011;21190;58.750;17.004;2023-07-31T03:52:03;4.68;;;2.72;;
34984;SDS011;21190;58.750;17.004;2023-07-31T03:54:31;6.72;;;2.85;;
34984;SDS011;21190;58.750;17.004;2023-07-31T03:56:58;6.90;;;2.58;;
34984;SDS011;21190;58.750;17.004;2023-07-31T03:59:25;7.75;;;3.03;;
34984;SDS011;21190;58.750;17.004;2023-07-31T04:01:52;6.85;;;2.72;;
34984;SDS011;21190;58.750;17.004;2023-07-31T04:04:19;5.80;;;2.40;;
34984;SDS011;21190;58.750;17.004;2023-07-31T04:06:46;7.50;;;2.28;;
34984;SDS011;21190;58.750;17.004;2023-07-31T04:09:13;8.45;;;2.92;;
34984;SDS011;21190;58.750;17.004;2023-07-31T04:11:40;4.82;;;2.50;;
34984;SDS011;21190;58.750;17.004;2023-07-31T04:14:07;6.25;;;2.60;;
34984;SDS011;21190;58.750;17.004;2023-07-31T04:16:33;9.48;;;2.75;;
34984;SDS011;21190;58.750;17.004;2023-07-31T04:19:00;6.85;;;2.45;;
34984;SDS011;21190;58.750;17.004;2023-07-31T04:21:29;4.47;;;2.22;;
34984;SDS011;21190;58.750;17.004;2023-07-31T04:23:56;7.97;;;2.30;;
34984;SDS011;21190;58.750;17.004;2023-07-31T04:26:23;3.50;;;1.98;;
34984;SDS011;21190;58.750;17.004;2023-07-31T04:28:49;5.40;;;2.05;;
34984;SDS011;21190;58.750;17.004;2023-07-31T04:31:16;6.43;;;2.47;;
34984;SDS011;21190;58.750;17.004;2023-07-31T04:33:43;8.20;;;2.40;;
34984;SDS011;21190;58.750;17.004;2023-07-31T04:36:10;3.33;;;2.33;;
34984;SDS011;21190;58.750;17.004;2023-07-31T04:38:37;7.32;;;2.50;;
34984;SDS011;21190;58.750;17.004;2023-07-31T04:41:04;4.60;;;3.40;;
34984;SDS011;21190;58.750;17.004;2023-07-31T04:43:32;5.97;;;3.38;;
34984;SDS011;21190;58.750;17.004;2023-07-31T04:45:59;6.22;;;2.85;;
34984;SDS011;21190;58.750;17.004;2023-07-31T04:48:26;7.00;;;2.97;;
34984;SDS011;21190;58.750;17.004;2023-07-31T04:50:52;5.70;;;3.13;;
34984;SDS011;21190;58.750;17.004;2023-07-31T04:53:20;6.03;;;2.67;;
34984;SDS011;21190;58.750;17.004;2023-07-31T04:55:46;4.45;;;2.58;;
34984;SDS011;21190;58.750;17.004;2023-07-31T04:58:13;4.65;;;3.22;;
34984;SDS011;21190;58.750;17.004;2023-07-31T05:00:40;7.28;;;3.58;;
34984;SDS011;21190;58.750;17.004;2023-07-31T05:03:07;7.55;;;3.58;;
34984;SDS011;21190;58.750;17.004;2023-07-31T05:05:34;6.40;;;3.38;;
34984;SDS011;21190;58.750;17.004;2023-07-31T05:08:02;6.45;;;3.60;;
34984;SDS011;21190;58.750;17.004;2023-07-31T05:10:29;7.85;;;3.92;;
34984;SDS011;21190;58.750;17.004;2023-07-31T05:12:56;5.50;;;3.28;;
34984;SDS011;21190;58.750;17.004;2023-07-31T05:15:23;6.72;;;3.55;;
34984;SDS011;21190;58.750;17.004;2023-07-31T05:17:50;7.28;;;3.30;;
34984;SDS011;21190;58.750;17.004;2023-07-31T05:20:17;9.60;;;3.92;;
34984;SDS011;21190;58.750;17.004;2023-07-31T05:22:44;4.78;;;3.00;;
34984;SDS011;21190;58.750;17.004;2023-07-31T05:25:11;9.20;;;3.40;;
34984;SDS011;21190;58.750;17.004;2023-07-31T05:27:38;11.25;;;3.80;;
34984;SDS011;21190;58.750;17.004;2023-07-31T05:30:05;9.20;;;4.13;;
34984;SDS011;21190;58.750;17.004;2023-07-31T05:32:32;6.50;;;3.10;;
34984;SDS011;21190;58.750;17.004;2023-07-31T05:34:59;6.10;;;3.40;;
34984;SDS011;21190;58.750;17.004;2023-07-31T05:37:26;6.05;;;3.85;;
34984;SDS011;21190;58.750;17.004;2023-07-31T05:39:53;8.15;;;3.60;;
34984;SDS011;21190;58.750;17.004;2023-07-31T05:42:20;8.52;;;3.33;;
34984;SDS011;21190;58.750;17.004;2023-07-31T05:44:47;4.47;;;3.13;;
34984;SDS011;21190;58.750;17.004;2023-07-31T05:47:14;8.15;;;3.83;;
34984;SDS011;21190;58.750;17.004;2023-07-31T05:49:41;9.98;;;3.72;;
34984;SDS011;21190;58.750;17.004;2023-07-31T05:52:08;7.53;;;3.50;;
34984;SDS011;21190;58.750;17.004;2023-07-31T05:54:35;6.13;;;3.58;;
34984;SDS011;21190;58.750;17.004;2023-07-31T05:57:02;10.52;;;3.40;;
34984;SDS011;21190;58.750;17.004;2023-07-31T05:59:29;7.55;;;3.20;;
34984;SDS011;21190;58.750;17.004;2023-07-31T06:01:59;5.72;;;3.13;;
34984;SDS011;21190;58.750;17.004;2023-07-31T06:04:26;12.05;;;4.28;;
34984;SDS011;21190;58.750;17.004;2023-07-31T06:06:53;5.97;;;3.70;;
34984;SDS011;21190;58.750;17.004;2023-07-31T06:09:20;5.70;;;3.83;;
34984;SDS011;21190;58.750;17.004;2023-07-31T06:11:47;5.78;;;3.60;;
34984;SDS011;21190;58.750;17.004;2023-07-31T06:14:14;6.18;;;3.90;;
34984;SDS011;21190;58.750;17.004;2023-07-31T06:16:41;8.20;;;3.72;;
34984;SDS011;21190;58.750;17.004;2023-07-31T06:19:10;7.85;;;3.05;;
34984;SDS011;21190;58.750;17.004;2023-07-31T06:21:37;5.38;;;3.42;;
34984;SDS011;21190;58.750;17.004;2023-07-31T06:24:07;5.32;;;3.05;;
34984;SDS011;21190;58.750;17.004;2023-07-31T06:26:35;5.95;;;3.42;;
34984;SDS011;21190;58.750;17.004;2023-07-31T06:29:03;6.35;;;3.85;;
34984;SDS011;21190;58.750;17.004;2023-07-31T06:31:30;5.15;;;3.42;;
34984;SDS011;21190;58.750;17.004;2023-07-31T06:33:57;8.65;;;2.83;;
34984;SDS011;21190;58.750;17.004;2023-07-31T06:36:24;4.75;;;3.15;;
34984;SDS011;21190;58.750;17.004;2023-07-31T06:38:51;5.22;;;2.88;;
34984;SDS011;21190;58.750;17.004;2023-07-31T06:41:18;6.75;;;3.10;;
34984;SDS011;21190;58.750;17.004;2023-07-31T06:43:45;5.68;;;2.33;;
34984;SDS011;21190;58.750;17.004;2023-07-31T06:46:12;5.05;;;2.75;;
34984;SDS011;21190;58.750;17.004;2023-07-31T06:48:40;4.55;;;2.50;;
34984;SDS011;21190;58.750;17.004;2023-07-31T06:51:06;3.90;;;2.40;;
34984;SDS011;21190;58.750;17.004;2023-07-31T06:53:33;4.72;;;2.58;;
34984;SDS011;21190;58.750;17.004;2023-07-31T06:56:00;4.35;;;2.50;;
34984;SDS011;21190;58.750;17.004;2023-07-31T06:58:27;3.92;;;2.40;;
34984;SDS011;21190;58.750;17.004;2023-07-31T07:00:54;4.35;;;2.65;;
34984;SDS011;21190;58.750;17.004;2023-07-31T07:03:22;3.88;;;2.05;;
34984;SDS011;21190;58.750;17.004;2023-07-31T07:05:48;5.18;;;2.25;;
34984;SDS011;21190;58.750;17.004;2023-07-31T07:08:15;3.25;;;2.28;;
34984;SDS011;21190;58.750;17.004;2023-07-31T07:10:43;2.53;;;2.00;;
34984;SDS011;21190;58.750;17.004;2023-07-31T07:13:10;4.13;;;2.53;;
34984;SDS011;21190;58.750;17.004;2023-07-31T07:15:39;4.72;;;2.75;;
34984;SDS011;21190;58.750;17.004;2023-07-31T07:18:06;4.88;;;2.45;;
34984;SDS011;21190;58.750;17.004;2023-07-31T07:20:33;3.85;;;2.40;;
34984;SDS011;21190;58.750;17.004;2023-07-31T07:23:00;3.17;;;2.25;;
34984;SDS011;21190;58.750;17.004;2023-07-31T07:25:27;7.18;;;1.88;;
34984;SDS011;21190;58.750;17.004;2023-07-31T07:27:54;2.70;;;2.17;;
34984;SDS011;21190;58.750;17.004;2023-07-31T07:30:21;2.92;;;2.20;;
34984;SDS011;21190;58.750;17.004;2023-07-31T07:32:51;4.95;;;1.90;;
34984;SDS011;21190;58.750;17.004;2023-07-31T07:35:18;4.07;;;1.88;;
34984;SDS011;21190;58.750;17.004;2023-07-31T07:37:45;3.08;;;1.63;;
34984;SDS011;21190;58.750;17.004;2023-07-31T07:40:18;2.78;;;1.70;;
34984;SDS011;21190;58.750;17.004;2023-07-31T07:42:46;3.05;;;1.67;;
34984;SDS011;21190;58.750;17.004;2023-07-31T07:45:13;3.42;;;1.58;;
34984;SDS011;21190;58.750;17.004;2023-07-31T07:47:40;1.95;;;1.55;;
34984;SDS011;21190;58.750;17.004;2023-07-31T07:50:07;2.25;;;1.50;;
34984;SDS011;21190;58.750;17.004;2023-07-31T07:52:35;2.40;;;1.60;;
34984;SDS011;21190;58.750;17.004;2023-07-31T07:55:02;3.63;;;1.70;;
34984;SDS011;21190;58.750;17.004;2023-07-31T07:57:30;4.13;;;1.88;;
34984;SDS011;21190;58.750;17.004;2023-07-31T07:59:57;2.38;;;1.60;;
34984;SDS011;21190;58.750;17.004;2023-07-31T08:02:24;2.00;;;1.40;;
34984;SDS011;21190;58.750;17.004;2023-07-31T08:04:51;3.60;;;2.00;;
34984;SDS011;21190;58.750;17.004;2023-07-31T08:07:18;2.40;;;1.50;;
34984;SDS011;21190;58.750;17.004;2023-07-31T08:09:45;2.22;;;1.55;;
34984;SDS011;21190;58.750;17.004;2023-07-31T08:12:12;3.28;;;1.77;;
34984;SDS011;21190;58.750;17.004;2023-07-31T08:14:38;3.33;;;1.50;;
34984;SDS011;21190;58.750;17.004;2023-07-31T08:17:05;2.13;;;1.60;;
34984;SDS011;21190;58.750;17.004;2023-07-31T08:19:32;4.05;;;2.00;;
34984;SDS011;21190;58.750;17.004;2023-07-31T08:22:00;3.13;;;1.45;;
34984;SDS011;21190;58.750;17.004;2023-07-31T08:24:26;5.45;;;1.98;;
34984;SDS011;21190;58.750;17.004;2023-07-31T08:26:54;3.03;;;1.88;;
34984;SDS011;21190;58.750;17.004;2023-07-31T08:29:21;2.88;;;1.98;;
34984;SDS011;21190;58.750;17.004;2023-07-31T08:31:48;3.63;;;1.75;;
34984;SDS011;21190;58.750;17.004;2023-07-31T08:34:14;3.58;;;1.60;;
34984;SDS011;21190;58.750;17.004;2023-07-31T08:36:41;8.68;;;2.20;;
34984;SDS011;21190;58.750;17.004;2023-07-31T08:39:08;4.35;;;1.75;;
34984;SDS011;21190;58.750;17.004;2023-07-31T08:41:39;2.47;;;1.65;;
34984;SDS011;21190;58.750;17.004;2023-07-31T08:44:06;6.15;;;2.38;;
34984;SDS011;21190;58.750;17.004;2023-07-31T08:46:34;5.82;;;1.73;;
34984;SDS011;21190;58.750;17.004;2023-07-31T08:49:03;2.92;;;1.90;;
34984;SDS011;21190;58.750;17.004;2023-07-31T08:51:33;4.20;;;1.92;;
34984;SDS011;21190;58.750;17.004;2023-07-31T08:54:01;5.22;;;2.15;;
34984;SDS011;21190;58.750;17.004;2023-07-31T08:56:31;2.85;;;1.52;;
34984;SDS011;21190;58.750;17.004;2023-07-31T08:58:59;3.50;;;1.67;;
34984;SDS011;21190;58.750;17.004;2023-07-31T09:01:28;2.13;;;1.42;;
34984;SDS011;21190;58.750;17.004;2023-07-31T09:03:58;3.03;;;1.60;;
34984;SDS011;21190;58.750;17.004;2023-07-31T09:06:28;2.47;;;1.70;;
34984;SDS011;21190;58.750;17.004;2023-07-31T09:08:56;2.60;;;1.80;;
34984;SDS011;21190;58.750;17.004;2023-07-31T09:11:23;4.38;;;1.77;;
34984;SDS011;21190;58.750;17.004;2023-07-31T09:13:51;2.22;;;1.75;;
34984;SDS011;21190;58.750;17.004;2023-07-31T09:16:25;3.00;;;1.92;;
34984;SDS011;21190;58.750;17.004;2023-07-31T09:18:56;2.97;;;1.60;;
34984;SDS011;21190;58.750;17.004;2023-07-31T09:21:24;4.85;;;1.40;;
34984;SDS011;21190;58.750;17.004;2023-07-31T09:23:54;5.00;;;1.55;;
34984;SDS011;21190;58.750;17.004;2023-07-31T09:26:34;3.13;;;1.40;;
34984;SDS011;21190;58.750;17.004;2023-07-31T09:29:07;1.55;;;1.27;;
34984;SDS011;21190;58.750;17.004;2023-07-31T09:31:45;2.88;;;1.27;;
34984;SDS011;21190;58.750;17.004;2023-07-31T09:34:12;2.85;;;1.10;;
34984;SDS011;21190;58.750;17.004;2023-07-31T09:39:10;3.97;;;1.38;;
34984;SDS011;21190;58.750;17.004;2023-07-31T09:41:42;6.72;;;1.98;;
34984;SDS011;21190;58.750;17.004;2023-07-31T09:44:12;7.90;;;2.58;;
34984;SDS011;21190;58.750;17.004;2023-07-31T09:46:39;10.80;;;2.55;;
34984;SDS011;21190;58.750;17.004;2023-07-31T09:49:08;5.63;;;2.50;;
34984;SDS011;21190;58.750;17.004;2023-07-31T09:51:36;8.13;;;3.08;;
34984;SDS011;21190;58.750;17.004;2023-07-31T09:54:13;9.55;;;2.60;;
34984;SDS011;21190;58.750;17.004;2023-07-31T09:56:45;9.10;;;3.80;;
34984;SDS011;21190;58.750;17.004;2023-07-31T09:59:17;4.43;;;2.80;;
34984;SDS011;21190;58.750;17.004;2023-07-31T10:01:49;5.15;;;2.83;;
34984;SDS011;21190;58.750;17.004;2023-07-31T10:04:18;8.27;;;2.92;;
34984;SDS011;21190;58.750;17.004;2023-07-31T10:06:52;7.35;;;3.28;;
34984;SDS011;21190;58.750;17.004;2023-07-31T10:09:20;5.72;;;3.30;;
34984;SDS011;21190;58.750;17.004;2023-07-31T10:11:54;8.43;;;3.35;;
34984;SDS011;21190;58.750;17.004;2023-07-31T10:16:52;7.05;;;3.35;;
34984;SDS011;21190;58.750;17.004;2023-07-31T10:19:20;5.70;;;3.20;;
34984;SDS011;21190;58.750;17.004;2023-07-31T10:21:48;5.82;;;3.00;;
34984;SDS011;21190;58.750;17.004;2023-07-31T10:24:16;5.60;;;2.83;;
34984;SDS011;21190;58.750;17.004;2023-07-31T10:26:44;4.68;;;2.53;;
34984;SDS011;21190;58.750;17.004;2023-07-31T10:29:13;5.97;;;2.30;;
34984;SDS011;21190;58.750;17.004;2023-07-31T10:31:42;2.65;;;1.50;;
34984;SDS011;21190;58.750;17.004;2023-07-31T10:34:09;2.80;;;1.90;;
34984;SDS011;21190;58.750;17.004;2023-07-31T10:36:37;3.60;;;1.98;;
34984;SDS011;21190;58.750;17.004;2023-07-31T10:39:05;5.65;;;2.05;;
34984;SDS011;21190;58.750;17.004;2023-07-31T10:42:12;2.53;;;1.45;;
34984;SDS011;21190;58.750;17.004;2023-07-31T10:44:46;2.25;;;1.70;;
34984;SDS011;21190;58.750;17.004;2023-07-31T10:47:17;3.50;;;1.60;;
34984;SDS011;21190;58.750;17.004;2023-07-31T10:49:44;3.58;;;1.20;;
34984;SDS011;21190;58.750;17.004;2023-07-31T10:52:13;5.45;;;1.95;;
34984;SDS011;21190;58.750;17.004;2023-07-31T10:54:40;4.22;;;1.60;;
34984;SDS011;21190;58.750;17.004;2023-07-31T10:57:20;6.70;;;1.25;;
34984;SDS011;21190;58.750;17.004;2023-07-31T10:59:48;3.67;;;1.73;;
34984;SDS011;21190;58.750;17.004;2023-07-31T11:02:26;3.90;;;1.90;;
34984;SDS011;21190;58.750;17.004;2023-07-31T11:05:09;6.32;;;1.88;;
34984;SDS011;21190;58.750;17.004;2023-07-31T11:07:54;5.60;;;1.30;;
34984;SDS011;21190;58.750;17.004;2023-07-31T11:10:22;2.58;;;1.70;;
34984;SDS011;21190;58.750;17.004;2023-07-31T11:12:51;5.18;;;1.70;;
34984;SDS011;21190;58.750;17.004;2023-07-31T11:15:19;3.63;;;1.40;;
34984;SDS011;21190;58.750;17.004;2023-07-31T11:17:46;3.13;;;1.30;;
34984;SDS011;21190;58.750;17.004;2023-07-31T11:20:13;4.22;;;1.90;;
34984;SDS011;21190;58.750;17.004;2023-07-31T11:22:40;3.50;;;1.30;;
34984;SDS011;21190;58.750;17.004;2023-07-31T11:25:08;5.13;;;2.17;;
34984;SDS011;21190;58.750;17.004;2023-07-31T11:27:38;3.47;;;1.45;;
34984;SDS011;21190;58.750;17.004;2023-07-31T11:30:07;3.05;;;1.70;;
34984;SDS011;21190;58.750;17.004;2023-07-31T11:32:36;3.08;;;1.50;;
34984;SDS011;21190;58.750;17.004;2023-07-31T11:35:03;2.60;;;1.30;;
34984;SDS011;21190;58.750;17.004;2023-07-31T11:37:41;4.55;;;1.60;;
34984;SDS011;21190;58.750;17.004;2023-07-31T11:40:09;2.78;;;1.60;;
34984;SDS011;21190;58.750;17.004;2023-07-31T11:42:37;3.50;;;1.20;;
34984;SDS011;21190;58.750;17.004;2023-07-31T11:45:05;3.33;;;1.40;;
34984;SDS011;21190;58.750;17.004;2023-07-31T11:47:33;4.30;;;1.73;;
34984;SDS011;21190;58.750;17.004;2023-07-31T11:50:01;5.60;;;1.70;;
34984;SDS011;21190;58.750;17.004;2023-07-31T11:52:30;3.35;;;1.50;;
34984;SDS011;21190;58.750;17.004;2023-07-31T11:55:01;4.35;;;2.03;;
34984;SDS011;21190;58.750;17.004;2023-07-31T11:57:29;4.13;;;1.88;;
34984;SDS011;21190;58.750;17.004;2023-07-31T11:59:57;4.07;;;2.10;;
34984;SDS011;21190;58.750;17.004;2023-07-31T12:02:24;2.15;;;1.30;;
34984;SDS011;21190;58.750;17.004;2023-07-31T12:04:51;6.15;;;1.70;;
34984;SDS011;21190;58.750;17.004;2023-07-31T12:07:18;2.53;;;1.40;;
34984;SDS011;21190;58.750;17.004;2023-07-31T12:09:54;1.95;;;1.17;;
34984;SDS011;21190;58.750;17.004;2023-07-31T12:12:22;3.72;;;1.55;;
34984;SDS011;21190;58.750;17.004;2023-07-31T12:14:51;7.47;;;1.67;;
34984;SDS011;21190;58.750;17.004;2023-07-31T12:17:18;1.55;;;1.25;;
34984;SDS011;21190;58.750;17.004;2023-07-31T12:19:48;4.30;;;1.40;;
34984;SDS011;21190;58.750;17.004;2023-07-31T12:22:15;3.75;;;1.70;;
34984;SDS011;21190;58.750;17.004;2023-07-31T12:24:43;4.43;;;1.30;;
34984;SDS011;21190;58.750;17.004;2023-07-31T12:27:11;3.15;;;1.30;;
34984;SDS011;21190;58.750;17.004;2023-07-31T12:29:39;3.33;;;1.70;;
34984;SDS011;21190;58.750;17.004;2023-07-31T12:32:20;3.15;;;1.40;;
34984;SDS011;21190;58.750;17.004;2023-07-31T12:34:48;2.40;;;1.50;;
34984;SDS011;21190;58.750;17.004;2023-07-31T12:37:15;2.92;;;1.40;;
34984;SDS011;21190;58.750;17.004;2023-07-31T12:39:42;2.65;;;1.40;;
34984;SDS011;21190;58.750;17.004;2023-07-31T12:42:09;5.25;;;1.70;;
34984;SDS011;21190;58.750;17.004;2023-07-31T12:44:36;4.30;;;1.17;;
34984;SDS011;21190;58.750;17.004;2023-07-31T12:47:03;1.90;;;1.17;;
34984;SDS011;21190;58.750;17.004;2023-07-31T12:49:30;2.10;;;1.30;;
34984;SDS011;21190;58.750;17.004;2023-07-31T12:51:57;5.07;;;1.50;;
34984;SDS011;21190;58.750;17.004;2023-07-31T12:54:24;3.90;;;1.80;;
34984;SDS011;21190;58.750;17.004;2023-07-31T12:56:51;2.80;;;1.92;;
34984;SDS011;21190;58.750;17.004;2023-07-31T12:59:18;4.97;;;2.30;;
34984;SDS011;21190;58.750;17.004;2023-07-31T13:01:45;4.28;;;2.20;;
34984;SDS011;21190;58.750;17.004;2023-07-31T13:04:12;4.63;;;2.17;;
34984;SDS011;21190;58.750;17.004;2023-07-31T13:06:40;2.10;;;1.88;;
34984;SDS011;21190;58.750;17.004;2023-07-31T13:09:07;3.42;;;1.85;;
34984;SDS011;21190;58.750;17.004;2023-07-31T13:11:35;2.53;;;1.77;;
34984;SDS011;21190;58.750;17.004;2023-07-31T13:14:02;5.32;;;2.42;;
34984;SDS011;21190;58.750;17.004;2023-07-31T13:16:29;8.68;;;1.58;;
34984;SDS011;21190;58.750;17.004;2023-07-31T13:18:56;4.20;;;1.40;;
34984;SDS011;21190;58.750;17.004;2023-07-31T13:21:23;5.57;;;1.50;;
34984;SDS011;21190;58.750;17.004;2023-07-31T13:23:50;4.80;;;1.70;;
34984;SDS011;21190;58.750;17.004;2023-07-31T13:26:17;4.13;;;1.95;;
34984;SDS011;21190;58.750;17.004;2023-07-31T13:28:44;2.90;;;1.90;;
34984;SDS011;21190;58.750;17.004;2023-07-31T13:31:11;5.18;;;1.60;;
34984;SDS011;21190;58.750;17.004;2023-07-31T13:33:38;5.57;;;1.67;;
34984;SDS011;21190;58.750;17.004;2023-07-31T13:36:08;2.53;;;1.40;;
34984;SDS011;21190;58.750;17.004;2023-07-31T13:38:35;6.78;;;1.90;;
34984;SDS011;21190;58.750;17.004;2023-07-31T13:41:02;3.30;;;1.60;;
34984;SDS011;21190;58.750;17.004;2023-07-31T13:43:29;7.10;;;1.75;;
34984;SDS011;21190;58.750;17.004;2023-07-31T13:45:56;4.22;;;2.28;;
34984;SDS011;21190;58.750;17.004;2023-07-31T13:48:23;4.63;;;1.48;;
34984;SDS011;21190;58.750;17.004;2023-07-31T13:50:50;4.43;;;2.08;;
34984;SDS011;21190;58.750;17.004;2023-07-31T13:53:17;5.22;;;1.80;;
34984;SDS011;21190;58.750;17.004;2023-07-31T13:55:44;4.93;;;1.50;;
34984;SDS011;21190;58.750;17.004;2023-07-31T13:58:12;3.35;;;1.50;;
34984;SDS011;21190;58.750;17.004;2023-07-31T14:00:39;4.88;;;1.50;;
34984;SDS011;21190;58.750;17.004;2023-07-31T14:03:06;4.40;;;1.50;;
34984;SDS011;21190;58.750;17.004;2023-07-31T14:05:33;3.60;;;1.55;;
34984;SDS011;21190;58.750;17.004;2023-07-31T14:08:00;3.80;;;1.48;;
34984;SDS011;21190;58.750;17.004;2023-07-31T14:10:27;2.70;;;1.50;;
34984;SDS011;21190;58.750;17.004;2023-07-31T14:12:54;3.83;;;2.13;;
34984;SDS011;21190;58.750;17.004;2023-07-31T14:15:20;6.20;;;1.52;;
34984;SDS011;21190;58.750;17.004;2023-07-31T14:17:47;2.65;;;1.48;;
34984;SDS011;21190;58.750;17.004;2023-07-31T14:20:15;4.05;;;1.58;;
34984;SDS011;21190;58.750;17.004;2023-07-31T14:22:42;2.83;;;1.60;;
34984;SDS011;21190;58.750;17.004;2023-07-31T14:25:09;3.65;;;1.50;;
34984;SDS011;21190;58.750;17.004;2023-07-31T14:27:36;5.35;;;1.65;;
34984;SDS011;21190;58.750;17.004;2023-07-31T14:30:04;5.60;;;1.52;;
34984;SDS011;21190;58.750;17.004;2023-07-31T14:32:31;5.90;;;1.40;;
34984;SDS011;21190;58.750;17.004;2023-07-31T14:34:58;2.10;;;1.35;;
34984;SDS011;21190;58.750;17.004;2023-07-31T14:37:25;3.08;;;1.58;;
34984;SDS011;21190;58.750;17.004;2023-07-31T14:39:54;4.00;;;1.80;;
34984;SDS011;21190;58.750;17.004;2023-07-31T14:42:21;5.40;;;1.55;;
34984;SDS011;21190;58.750;17.004;2023-07-31T14:44:48;5.93;;;1.65;;
34984;SDS011;21190;58.750;17.004;2023-07-31T14:47:15;5.85;;;1.90;;
34984;SDS011;21190;58.750;17.004;2023-07-31T14:49:42;8.80;;;1.90;;
34984;SDS011;21190;58.750;17.004;2023-07-31T14:52:08;3.53;;;1.60;;